首页
METAR-TAF:

METAR-TAF

机场 :

鄂木斯克, 俄罗斯

纬度: 54-58N, 经度: 073-18E, 海拔: 122米

当前天气观测

该预报发布于15分钟前的11:00 UTC
风速14节,风向东南
温度 22°C
湿度 78%
气压 1001 hPa
能见度10公里或以上
多云层高于1400英尺
多云层高于2300英尺, 积雨云.

METAR: UNOO 231100Z 13007MPS 9999 BKN014 BKN023CB 22/18 Q1001 R07/290150 NOSIG RMK QFE742

时间: 17:15 (11:15 UTC)

预报

该预报发布于3小时和25分钟前的07:50 UTC
预报有效从23日的 09点(UTC)到 24日的 09点(UTC)
风速10节,风向南转南东,有时为25节阵风
能見度: 8000
多云层高于700英尺
多云层高于2000英尺, 积雨云.
小阵雨
短暂存在
从 23日的 09点(UTC)到 23日的 16点(UTC)
风速29节,风向多变
能見度: 1000
多云层高于300英尺
多云层高于2000英尺, 积雨云.
雷暴, 雨
从 23日的 1600点(UTC)
风速6节,风向南转西南
能見度: 8000
多云层高于1000英尺
多云层高于3000英尺, 积雨云.
短暂存在
从 23日的 16点(UTC)到 24日的 03点(UTC)
能見度: 0500
层高于300英尺
雷暴, 小雨, 雾
短暂存在
从 24日的 03点(UTC)到 24日的 06点(UTC)
能見度: 2100
多云层高于700英尺
多云层高于2000英尺, 积雨云.
雷暴, 小雨,

TAF: UNOO 230750Z 2309/2409 15005G13MPS 8000 -SHRA BKN007 BKN020CB TEMPO 2309/2316 VRB15MPS 1000 TSRA BKN003 BKN020CB FM231600 21003MPS 8000 BKN010 BKN030CB TEMPO 2316/2403 0500 -TSRA FG VV003 TEMPO 2403/2406 2100 -TSRA BKN007 BKN020CB

超过4000个机场的气象观测和天气预报(METAR&TAF报告)。

可查询的气象台以黄色和红色小点在地图上表示。

将鼠标移到小点上方,可查看气象台名称。

然后点击查看天气观测和预报。

如需切换地图:点击带黑十字的绿色按钮放大地图;点击带横线的绿色按钮缩小地图;或者点击绿色箭头查看邻近地区的地图。


METAR-TAF: